createdAt,value
2018-10-05T00:01:51.475Z,101324.44
2018-10-05T00:04:20.424Z,101329.47
2018-10-05T00:06:49.391Z,101324.60
2018-10-05T00:09:18.359Z,101318.79
2018-10-05T00:11:47.380Z,101318.34
2018-10-05T00:14:16.343Z,101322.34
2018-10-05T00:16:45.299Z,101315.08
2018-10-05T00:19:14.326Z,101313.98
2018-10-05T00:21:43.274Z,101309.11
2018-10-05T00:24:12.230Z,101312.05
2018-10-05T00:26:41.252Z,101317.30
2018-10-05T00:29:10.236Z,101316.09
2018-10-05T00:31:39.230Z,101311.97
2018-10-05T00:34:08.218Z,101315.13
2018-10-05T00:36:37.298Z,101311.11
2018-10-05T00:39:07.994Z,101314.89
2018-10-05T00:41:37.010Z,101316.23
2018-10-05T00:44:07.263Z,101315.25
2018-10-05T00:46:36.218Z,101313.91
2018-10-05T00:49:05.214Z,101312.95
2018-10-05T00:51:34.179Z,101308.08
2018-10-05T00:54:03.333Z,101311.61
2018-10-05T00:56:32.367Z,101311.11
2018-10-05T00:59:01.354Z,101316.97
2018-10-05T01:01:30.347Z,101309.55
2018-10-05T01:03:59.331Z,101309.55
2018-10-05T01:06:28.286Z,101307.00
2018-10-05T01:08:57.330Z,101302.75
2018-10-05T01:11:26.459Z,101307.48
2018-10-05T01:13:55.433Z,101302.88
2018-10-05T01:16:24.402Z,101310.53
2018-10-05T01:18:53.397Z,101316.37
2018-10-05T01:21:22.396Z,101316.97
2018-10-05T01:23:51.446Z,101325.13
2018-10-05T01:26:20.407Z,101319.03
2018-10-05T01:28:49.383Z,101315.89
2018-10-05T01:31:18.388Z,101305.44
2018-10-05T01:33:47.397Z,101299.61
2018-10-05T01:36:16.370Z,101309.44
2018-10-05T01:38:45.338Z,101310.91
2018-10-05T01:41:14.344Z,101302.98
2018-10-05T01:43:43.280Z,101300.55
2018-10-05T01:46:12.230Z,101298.23
2018-10-05T01:48:41.263Z,101293.86
2018-10-05T01:51:10.237Z,101296.90
2018-10-05T01:53:39.218Z,101295.08
2018-10-05T01:56:08.178Z,101302.98
2018-10-05T01:58:37.209Z,101303.59
2018-10-05T02:01:06.151Z,101299.09
2018-10-05T02:03:35.139Z,101303.48
2018-10-05T02:06:04.102Z,101306.64
2018-10-05T02:08:33.082Z,101309.08
2018-10-05T02:11:02.058Z,101314.19
2018-10-05T02:13:31.024Z,101303.59
2018-10-05T02:16:00.080Z,101302.52
2018-10-05T02:18:29.058Z,101302.27
2018-10-05T02:20:58.050Z,101306.03
2018-10-05T02:23:27.058Z,101308.09
2018-10-05T02:25:56.237Z,101309.77
2018-10-05T02:28:25.238Z,101313.30
2018-10-05T02:30:54.186Z,101314.16
2018-10-05T02:33:23.232Z,101318.63
2018-10-05T02:35:52.229Z,101323.23
2018-10-05T02:38:21.285Z,101320.41
2018-10-05T02:40:50.296Z,101322.12
2018-10-05T02:43:19.254Z,101323.30
2018-10-05T02:45:48.270Z,101319.77
2018-10-05T02:48:17.214Z,101319.41
2018-10-05T02:50:46.298Z,101307.97
2018-10-05T02:53:15.251Z,101311.13
2018-10-05T02:55:44.190Z,101315.62
2018-10-05T02:58:13.162Z,101317.70
2018-10-05T03:00:53.100Z,101314.16
2018-10-05T03:03:22.084Z,101315.39
2018-10-05T03:05:51.147Z,101313.95
2018-10-05T03:08:20.124Z,101313.47
2018-10-05T03:10:49.127Z,101314.69
2018-10-05T03:13:18.167Z,101310.80
2018-10-05T03:15:47.131Z,101304.11
2018-10-05T03:18:16.118Z,101311.16
2018-10-05T03:20:45.086Z,101316.51
2018-10-05T03:23:14.062Z,101314.58
2018-10-05T03:25:43.050Z,101305.34
2018-10-05T03:28:12.038Z,101309.61
2018-10-05T03:30:41.105Z,101314.09
2018-10-05T03:33:10.109Z,101313.25
2018-10-05T03:35:39.112Z,101307.38
2018-10-05T03:38:08.132Z,101312.24
2018-10-05T03:40:37.119Z,101316.51
2018-10-05T03:43:06.122Z,101316.73
2018-10-05T03:45:35.102Z,101314.53
2018-10-05T03:48:04.169Z,101325.17
2018-10-05T03:50:33.130Z,101323.09
2018-10-05T03:53:02.075Z,101324.75
2018-10-05T03:55:31.091Z,101318.55
2018-10-05T03:58:00.055Z,101317.16
2018-10-05T04:00:29.034Z,101312.18
2018-10-05T04:02:57.986Z,101309.51
2018-10-05T04:05:27.012Z,101306.84
2018-10-05T04:07:55.975Z,101295.52
2018-10-05T04:10:25.278Z,101301.72
2018-10-05T04:12:54.272Z,101292.25
2018-10-05T04:15:23.318Z,101300.75
2018-10-05T04:17:52.316Z,101306.84
2018-10-05T04:20:21.265Z,101313.64
2018-10-05T04:22:50.316Z,101312.45
2018-10-05T04:25:19.281Z,101308.23
2018-10-05T04:27:48.253Z,101300.82
2018-10-05T04:30:17.225Z,101301.23
2018-10-05T04:32:46.260Z,101308.88
2018-10-05T04:35:15.245Z,101305.35
2018-10-05T04:37:44.211Z,101306.95
2018-10-05T04:40:13.231Z,101316.31
2018-10-05T04:42:42.210Z,101309.53
2018-10-05T04:45:11.205Z,101307.75
2018-10-05T04:47:40.219Z,101309.23
2018-10-05T04:50:09.280Z,101316.55
2018-10-05T04:52:38.623Z,101324.39
2018-10-05T04:55:07.646Z,101321.47
2018-10-05T04:57:36.666Z,101317.63
2018-10-05T05:00:05.713Z,101322.81
2018-10-05T05:02:34.748Z,101324.79
2018-10-05T05:05:03.779Z,101322.53
2018-10-05T05:07:32.824Z,101325.66
2018-10-05T05:10:01.818Z,101326.54
2018-10-05T05:12:30.848Z,101330.95
2018-10-05T05:15:00.522Z,101342.48
2018-10-05T05:17:29.479Z,101345.30
2018-10-05T05:19:59.179Z,101348.45
2018-10-05T05:22:28.149Z,101353.11
2018-10-05T05:24:57.122Z,101350.69
2018-10-05T05:27:26.077Z,101354.88
2018-10-05T05:29:55.034Z,101354.32
2018-10-05T05:32:24.099Z,101363.52
2018-10-05T05:34:53.048Z,101357.36
2018-10-05T05:37:22.016Z,101359.35
2018-10-05T05:39:51.087Z,101356.26
2018-10-05T05:42:20.054Z,101369.71
2018-10-05T05:44:49.006Z,101373.75
2018-10-05T05:47:17.973Z,101379.63
2018-10-05T05:49:47.008Z,101383.56
2018-10-05T05:52:15.953Z,101387.80
2018-10-05T05:54:44.926Z,101380.16
2018-10-05T05:57:13.886Z,101386.83
2018-10-05T05:59:42.874Z,101388.97
2018-10-05T06:02:11.890Z,101384.81
2018-10-05T06:04:40.975Z,101392.24
2018-10-05T06:07:09.967Z,101388.34
2018-10-05T06:09:38.902Z,101389.93
2018-10-05T06:12:08.063Z,101391.72
2018-10-05T06:14:37.036Z,101389.09
2018-10-05T06:17:06.006Z,101392.23
2018-10-05T06:19:34.990Z,101402.11
2018-10-05T06:22:04.019Z,101394.66
2018-10-05T06:24:32.930Z,101391.69
2018-10-05T06:27:01.887Z,101397.79
2018-10-05T06:29:30.902Z,101391.52
2018-10-05T06:31:59.876Z,101396.05
2018-10-05T06:34:28.847Z,101391.20
2018-10-05T06:36:57.799Z,101396.25
2018-10-05T06:39:26.754Z,101391.48
2018-10-05T06:41:55.763Z,101399.00
2018-10-05T06:44:25.001Z,101395.49
2018-10-05T06:46:53.998Z,101401.55
2018-10-05T06:49:22.989Z,101400.14
2018-10-05T06:51:51.942Z,101400.27
2018-10-05T06:54:20.906Z,101400.34
2018-10-05T06:56:49.854Z,101396.94
2018-10-05T06:59:18.836Z,101403.73
2018-10-05T07:01:47.821Z,101408.14
2018-10-05T07:04:16.890Z,101418.77
2018-10-05T07:06:45.858Z,101406.75
2018-10-05T07:09:14.801Z,101405.25
2018-10-05T07:11:43.769Z,101411.53
2018-10-05T07:14:12.720Z,101410.84
2018-10-05T07:16:41.770Z,101410.27
2018-10-05T07:19:10.747Z,101406.80
2018-10-05T07:21:39.768Z,101410.66
2018-10-05T07:24:08.700Z,101410.40
2018-10-05T07:26:37.668Z,101408.05
2018-10-05T07:29:06.670Z,101403.00
2018-10-05T07:31:35.638Z,101402.36
2018-10-05T07:34:04.666Z,101405.73
2018-10-05T07:36:33.627Z,101400.64
2018-10-05T07:39:02.742Z,101399.63
2018-10-05T07:41:31.713Z,101398.59
2018-10-05T07:44:00.668Z,101404.34
2018-10-05T07:46:29.635Z,101399.87
2018-10-05T07:48:58.606Z,101391.71
2018-10-05T07:51:27.571Z,101388.28
2018-10-05T07:53:56.518Z,101393.70
2018-10-05T07:56:25.538Z,101391.80
2018-10-05T07:58:55.801Z,101391.59
2018-10-05T08:01:24.786Z,101391.08
2018-10-05T08:03:53.790Z,101391.20
2018-10-05T08:06:22.764Z,101397.09
2018-10-05T08:08:51.770Z,101394.83
2018-10-05T08:11:20.719Z,101392.87
2018-10-05T08:13:49.742Z,101396.80
2018-10-05T08:16:18.738Z,101398.88
2018-10-05T08:18:47.702Z,101386.21
2018-10-05T08:21:16.651Z,101392.91
2018-10-05T08:23:45.618Z,101394.45
2018-10-05T08:26:14.581Z,101388.57
2018-10-05T08:28:43.542Z,101395.61
2018-10-05T08:31:12.554Z,101385.00
2018-10-05T08:33:41.513Z,101381.64
2018-10-05T08:36:10.483Z,101382.93
2018-10-05T08:38:39.458Z,101381.43
2018-10-05T08:41:08.425Z,101381.84
2018-10-05T08:43:37.367Z,101375.66
2018-10-05T08:46:06.328Z,101377.79
2018-10-05T08:48:35.339Z,101379.88
2018-10-05T08:51:04.277Z,101373.17
2018-10-05T08:53:33.210Z,101372.42
2018-10-05T08:56:02.166Z,101371.44
2018-10-05T08:58:31.118Z,101370.23
2018-10-05T09:01:00.079Z,101362.29
2018-10-05T09:03:29.039Z,101368.06
2018-10-05T09:05:58.042Z,101369.10
2018-10-05T09:08:26.979Z,101369.72
2018-10-05T09:10:55.948Z,101362.42
2018-10-05T09:13:24.898Z,101356.91
2018-10-05T09:15:53.864Z,101355.52
2018-10-05T09:18:22.839Z,101351.99
2018-10-05T09:20:51.786Z,101353.33
2018-10-05T09:23:20.846Z,101346.01
2018-10-05T09:25:49.826Z,101341.30
2018-10-05T09:28:18.781Z,101340.30
2018-10-05T09:30:47.873Z,101345.12
2018-10-05T09:33:16.735Z,101347.09
2018-10-05T09:35:45.886Z,101341.95
2018-10-05T09:38:14.843Z,101339.95
2018-10-05T09:40:43.806Z,101334.92
2018-10-05T09:43:12.783Z,101332.31
2018-10-05T09:45:41.752Z,101326.64
2018-10-05T09:48:10.714Z,101334.84
2018-10-05T09:50:39.686Z,101330.44
2018-10-05T09:53:08.722Z,101321.39
2018-10-05T09:55:37.679Z,101327.63
2018-10-05T09:58:06.674Z,101316.02
2018-10-05T10:00:40.854Z,101317.83
2018-10-05T10:03:32.061Z,101313.81
2018-10-05T10:06:01.453Z,101313.90
2018-10-05T10:08:30.491Z,101310.21
2018-10-05T10:10:59.455Z,101301.16
2018-10-05T10:13:28.470Z,101296.65
2018-10-05T10:15:57.504Z,101292.67
2018-10-05T10:18:26.506Z,101291.94
2018-10-05T10:20:55.490Z,101290.48
2018-10-05T10:23:24.516Z,101285.18
2018-10-05T10:25:53.498Z,101284.18
2018-10-05T10:28:22.549Z,101271.78
2018-10-05T10:30:51.538Z,101269.12
2018-10-05T10:33:20.510Z,101264.55
2018-10-05T10:35:49.470Z,101255.05
2018-10-05T10:38:18.419Z,101257.41
2018-10-05T10:40:47.421Z,101255.30
2018-10-05T10:43:16.383Z,101249.52
2018-10-05T10:45:45.367Z,101244.34
2018-10-05T10:48:14.360Z,101237.09
2018-10-05T10:50:43.421Z,101238.57
2018-10-05T10:53:12.483Z,101235.90
2018-10-05T10:55:41.437Z,101226.45
2018-10-05T10:58:10.446Z,101223.81
2018-10-05T11:00:39.415Z,101229.08
2018-10-05T11:03:08.436Z,101225.08
2018-10-05T11:05:37.398Z,101229.50
2018-10-05T11:08:06.460Z,101225.47
2018-10-05T11:10:35.430Z,101224.48
2018-10-05T11:13:04.595Z,101219.15
2018-10-05T11:15:33.615Z,101209.62
2018-10-05T11:18:02.572Z,101207.25
2018-10-05T11:20:31.578Z,101211.47
2018-10-05T11:23:00.544Z,101205.29
2018-10-05T11:25:29.627Z,101199.64
2018-10-05T11:27:58.574Z,101190.85
2018-10-05T11:30:27.553Z,101197.98
2018-10-05T11:32:56.625Z,101195.33
2018-10-05T11:35:25.583Z,101188.69
2018-10-05T11:37:54.599Z,101192.00
2018-10-05T11:40:30.177Z,101187.02
2018-10-05T11:42:59.226Z,101181.27
2018-10-05T11:45:28.210Z,101186.75
2018-10-05T11:47:57.197Z,101187.59
2018-10-05T11:50:26.226Z,101179.89
2018-10-05T11:52:55.225Z,101178.08
2018-10-05T11:55:24.396Z,101176.34
2018-10-05T11:57:53.396Z,101166.30
2018-10-05T12:00:22.449Z,101166.52
2018-10-05T12:02:51.414Z,101163.28
2018-10-05T12:05:20.468Z,101160.08
2018-10-05T12:07:49.389Z,101159.01
2018-10-05T12:10:18.382Z,101150.06
2018-10-05T12:12:47.367Z,101153.41
2018-10-05T12:15:16.360Z,101147.64
2018-10-05T12:17:45.410Z,101151.00
2018-10-05T12:20:14.392Z,101142.68
2018-10-05T12:22:43.367Z,101142.12
2018-10-05T12:25:12.363Z,101146.94
2018-10-05T12:27:41.350Z,101145.49
2018-10-05T12:30:10.343Z,101142.75
2018-10-05T12:32:39.309Z,101140.58
2018-10-05T12:35:08.371Z,101139.41
2018-10-05T12:37:37.334Z,101140.80
2018-10-05T12:40:06.422Z,101136.34
2018-10-05T12:42:35.490Z,101130.91
2018-10-05T12:45:04.469Z,101122.80
2018-10-05T12:47:33.463Z,101131.15
2018-10-05T12:50:02.531Z,101128.09
2018-10-05T12:52:31.518Z,101128.80
2018-10-05T12:55:00.486Z,101125.60
2018-10-05T12:57:29.541Z,101122.67
2018-10-05T12:59:58.555Z,101126.19
2018-10-05T13:02:27.555Z,101120.19
2018-10-05T13:04:56.745Z,101126.96
2018-10-05T13:07:25.694Z,101123.91
2018-10-05T13:09:54.756Z,101126.80
2018-10-05T13:12:23.732Z,101124.14
2018-10-05T13:14:52.696Z,101116.98
2018-10-05T13:17:21.725Z,101113.19
2018-10-05T13:22:18.549Z,101107.33
2018-10-05T13:24:47.537Z,101109.23
2018-10-05T13:27:16.633Z,101100.82
2018-10-05T13:29:45.613Z,101108.30
2018-10-05T13:32:14.571Z,101101.66
2018-10-05T13:34:43.598Z,101098.16
2018-10-05T13:37:12.601Z,101093.23
2018-10-05T13:39:41.622Z,101096.19
2018-10-05T13:42:10.637Z,101092.73
2018-10-05T13:44:39.680Z,101088.67
2018-10-05T13:47:08.706Z,101087.41
2018-10-05T13:49:37.672Z,101087.56
2018-10-05T13:52:06.866Z,101087.87
2018-10-05T13:54:35.818Z,101089.05
2018-10-05T13:57:04.812Z,101087.50
2018-10-05T13:59:33.811Z,101076.46
2018-10-05T14:02:02.849Z,101080.11
2018-10-05T14:04:31.874Z,101078.15
2018-10-05T14:07:00.880Z,101075.00
2018-10-05T14:09:29.896Z,101078.19
2018-10-05T14:11:58.858Z,101082.72
2018-10-05T14:14:27.846Z,101083.06
2018-10-05T14:16:56.871Z,101080.55
2018-10-05T14:19:25.895Z,101081.11
2018-10-05T14:21:54.876Z,101068.59
2018-10-05T14:24:23.847Z,101069.14
2018-10-05T14:26:52.867Z,101067.07
2018-10-05T14:29:22.704Z,101062.36
2018-10-05T14:31:51.931Z,101061.34
2018-10-05T14:34:20.878Z,101058.39
2018-10-05T14:36:50.093Z,101057.36
2018-10-05T14:39:19.105Z,101055.13
2018-10-05T14:41:48.141Z,101048.84
2018-10-05T14:44:17.060Z,101046.62
2018-10-05T14:46:46.008Z,101049.98
2018-10-05T14:49:15.066Z,101049.16
2018-10-05T14:51:44.030Z,101055.89
2018-10-05T14:54:13.085Z,101055.67
2018-10-05T14:56:42.053Z,101047.48
2018-10-05T14:59:11.020Z,101046.86
2018-10-05T15:01:39.989Z,101042.45
2018-10-05T15:04:08.984Z,101041.39
2018-10-05T15:06:37.955Z,101048.94
2018-10-05T15:09:07.201Z,101041.65
2018-10-05T15:11:36.286Z,101046.89
2018-10-05T15:14:05.243Z,101048.34
2018-10-05T15:16:34.211Z,101052.63
2018-10-05T15:19:03.189Z,101049.86
2018-10-05T15:21:32.242Z,101047.84
2018-10-05T15:24:01.200Z,101051.06
2018-10-05T15:26:30.157Z,101053.64
2018-10-05T15:28:59.194Z,101058.52
2018-10-05T15:31:28.180Z,101065.28
2018-10-05T15:33:57.190Z,101062.54
2018-10-05T15:36:26.171Z,101054.23
2018-10-05T15:38:55.152Z,101060.19
2018-10-05T15:41:24.152Z,101058.48
2018-10-05T15:43:53.127Z,101062.11
2018-10-05T15:46:33.139Z,101063.23
2018-10-05T15:49:02.119Z,101056.25
2018-10-05T15:51:31.095Z,101062.64
2018-10-05T15:54:00.095Z,101062.55
2018-10-05T15:56:29.114Z,101057.75
2018-10-05T15:58:58.105Z,101059.35
2018-10-05T16:01:27.087Z,101063.08
2018-10-05T16:03:56.161Z,101070.56
2018-10-05T16:06:25.127Z,101067.36
2018-10-05T16:08:54.133Z,101058.05
2018-10-05T16:11:23.126Z,101064.64
2018-10-05T16:13:52.105Z,101064.27
2018-10-05T16:16:21.623Z,101061.78
2018-10-05T16:18:50.597Z,101061.69
2018-10-05T16:21:19.648Z,101064.29
2018-10-05T16:23:48.690Z,101064.69
2018-10-05T16:26:17.652Z,101067.83
2018-10-05T16:28:46.650Z,101065.16
2018-10-05T16:31:15.686Z,101064.19
2018-10-05T16:33:44.787Z,101061.19
2018-10-05T16:36:13.744Z,101060.88
2018-10-05T16:38:42.907Z,101066.84
2018-10-05T16:41:11.853Z,101068.39
2018-10-05T16:43:40.872Z,101068.05
2018-10-05T16:46:09.795Z,101070.06
2018-10-05T16:48:38.765Z,101076.69
2018-10-05T16:51:07.788Z,101082.95
2018-10-05T16:53:36.750Z,101079.56
2018-10-05T16:56:05.819Z,101078.56
2018-10-05T16:58:34.893Z,101075.20
2018-10-05T17:01:03.925Z,101067.27
2018-10-05T17:03:33.018Z,101080.78
2018-10-05T17:06:01.993Z,101077.56
2018-10-05T17:08:32.844Z,101080.59
2018-10-05T17:11:01.969Z,101083.64
2018-10-05T17:13:30.889Z,101082.30
2018-10-05T17:15:59.927Z,101080.93
2018-10-05T17:18:28.930Z,101084.66
2018-10-05T17:20:57.951Z,101079.92
2018-10-05T17:23:26.951Z,101080.93
2018-10-05T17:25:55.961Z,101082.28
2018-10-05T17:28:24.919Z,101080.60
2018-10-05T17:30:54.031Z,101070.44
2018-10-05T17:33:23.032Z,101077.87
2018-10-05T17:35:52.027Z,101076.16
2018-10-05T17:38:21.009Z,101073.47
2018-10-05T17:40:50.049Z,101073.12
2018-10-05T17:43:19.046Z,101068.05
2018-10-05T17:45:48.067Z,101074.81
2018-10-05T17:48:17.158Z,101072.45
2018-10-05T17:50:46.121Z,101078.51
2018-10-05T17:53:15.088Z,101080.03
2018-10-05T17:55:44.279Z,101076.78
2018-10-05T17:58:13.242Z,101077.77
2018-10-05T18:00:42.261Z,101074.01
2018-10-05T18:03:11.222Z,101082.30
2018-10-05T18:05:40.261Z,101084.13
2018-10-05T18:08:09.270Z,101089.88
2018-10-05T18:10:38.217Z,101094.95
2018-10-05T18:13:07.339Z,101094.78
2018-10-05T18:15:37.054Z,101093.60
2018-10-05T18:18:06.022Z,101100.91
2018-10-05T18:20:34.992Z,101109.55
2018-10-05T18:23:04.019Z,101112.97
2018-10-05T18:25:33.005Z,101111.30
2018-10-05T18:28:01.948Z,101108.61
2018-10-05T18:30:30.942Z,101110.33
2018-10-05T18:33:00.039Z,101111.33
2018-10-05T18:35:29.132Z,101122.34
2018-10-05T18:37:58.145Z,101116.75
2018-10-05T18:40:27.179Z,101124.55
2018-10-05T18:42:56.210Z,101127.58
2018-10-05T18:45:25.188Z,101116.95
2018-10-05T18:47:54.171Z,101110.02
2018-10-05T18:50:23.110Z,101123.88
2018-10-05T18:52:52.118Z,101122.84
2018-10-05T18:55:21.056Z,101123.87
2018-10-05T18:57:50.001Z,101124.86
2018-10-05T19:00:19.037Z,101126.22
2018-10-05T19:02:47.987Z,101132.94
2018-10-05T19:05:17.056Z,101134.26
2018-10-05T19:07:46.059Z,101134.58
2018-10-05T19:10:15.098Z,101142.66
2018-10-05T19:12:44.063Z,101137.95
2018-10-05T19:15:13.046Z,101136.30
2018-10-05T19:17:42.044Z,101134.58
2018-10-05T19:20:11.045Z,101132.54
2018-10-05T19:22:40.043Z,101144.41
2018-10-05T19:25:09.029Z,101147.12
2018-10-05T19:27:38.083Z,101140.73
2018-10-05T19:30:07.070Z,101142.06
2018-10-05T19:32:36.079Z,101138.36
2018-10-05T19:35:05.107Z,101131.26
2018-10-05T19:37:34.223Z,101136.83
2018-10-05T19:40:03.222Z,101136.67
2018-10-05T19:42:32.212Z,101146.13
2018-10-05T19:45:01.300Z,101145.10
2018-10-05T19:47:30.304Z,101148.47
2018-10-05T19:49:59.263Z,101145.38
2018-10-05T19:52:28.217Z,101140.30
2018-10-05T19:54:57.180Z,101136.73
2018-10-05T19:57:26.182Z,101143.11
2018-10-05T19:59:55.168Z,101146.63
2018-10-05T20:02:24.246Z,101143.55
2018-10-05T20:04:53.257Z,101146.25
2018-10-05T20:07:22.242Z,101148.72
2018-10-05T20:09:51.292Z,101143.17
2018-10-05T20:12:20.263Z,101147.64
2018-10-05T20:14:49.355Z,101145.80
2018-10-05T20:17:18.423Z,101137.31
2018-10-05T20:19:47.464Z,101143.67
2018-10-05T20:22:16.440Z,101137.03
2018-10-05T20:24:45.426Z,101137.14
2018-10-05T20:27:14.463Z,101134.73
2018-10-05T20:29:43.467Z,101131.65
2018-10-05T20:32:12.472Z,101131.10
2018-10-05T20:34:41.458Z,101136.34
2018-10-05T20:37:10.565Z,101138.63
2018-10-05T20:39:39.457Z,101136.92
2018-10-05T20:42:08.436Z,101133.13
2018-10-05T20:44:37.523Z,101134.36
2018-10-05T20:47:06.539Z,101127.81
2018-10-05T20:49:35.507Z,101131.48
2018-10-05T20:52:04.503Z,101130.36
2018-10-05T20:54:33.562Z,101135.73
2018-10-05T20:57:02.539Z,101128.88
2018-10-05T20:59:31.487Z,101128.80
2018-10-05T21:02:00.473Z,101128.02
2018-10-05T21:04:29.455Z,101129.05
2018-10-05T21:06:58.444Z,101125.09
2018-10-05T21:09:27.399Z,101127.58
2018-10-05T21:11:56.408Z,101122.80
2018-10-05T21:14:25.346Z,101121.31
2018-10-05T21:16:54.302Z,101124.39
2018-10-05T21:19:23.262Z,101119.33
2018-10-05T21:21:52.226Z,101117.37
2018-10-05T21:24:21.181Z,101116.11
2018-10-05T21:26:50.129Z,101114.32
2018-10-05T21:29:19.139Z,101111.13
2018-10-05T21:31:48.078Z,101108.23
2018-10-05T21:34:17.043Z,101106.73
2018-10-05T21:36:46.023Z,101113.64
2018-10-05T21:39:14.991Z,101112.50
2018-10-05T21:41:44.115Z,101111.66
2018-10-05T21:44:13.058Z,101105.97
2018-10-05T21:46:42.091Z,101110.30
2018-10-05T21:49:11.074Z,101113.12
2018-10-05T21:51:40.044Z,101106.89
2018-10-05T21:54:09.051Z,101110.37
2018-10-05T21:56:37.983Z,101111.98
2018-10-05T21:59:07.005Z,101107.76
2018-10-05T22:01:35.970Z,101106.24
2018-10-05T22:04:05.001Z,101090.11
2018-10-05T22:06:34.000Z,101092.80
2018-10-05T22:09:03.138Z,101089.38
2018-10-05T22:11:32.126Z,101102.13
2018-10-05T22:14:01.960Z,101098.67
2018-10-05T22:16:30.902Z,101093.48
2018-10-05T22:18:59.856Z,101089.02
2018-10-05T22:21:28.888Z,101095.83
2018-10-05T22:23:57.852Z,101097.09
2018-10-05T22:26:26.792Z,101094.84
2018-10-05T22:28:55.754Z,101089.36
2018-10-05T22:31:24.701Z,101089.95
2018-10-05T22:33:53.707Z,101077.47
2018-10-05T22:36:22.745Z,101080.66
2018-10-05T22:38:51.791Z,101073.95
2018-10-05T22:41:20.739Z,101079.58
2018-10-05T22:43:50.027Z,101076.41
2018-10-05T22:46:19.566Z,101074.11
2018-10-05T22:48:48.671Z,101086.24
2018-10-05T22:51:17.654Z,101078.86
2018-10-05T22:53:46.683Z,101080.96
2018-10-05T22:56:15.702Z,101084.75
2018-10-05T22:58:44.652Z,101085.80
2018-10-05T23:01:13.604Z,101082.27
2018-10-05T23:03:42.566Z,101078.76
2018-10-05T23:06:11.555Z,101083.50
2018-10-05T23:08:40.522Z,101088.94
2018-10-05T23:11:09.470Z,101092.63
2018-10-05T23:13:38.516Z,101087.94
2018-10-05T23:16:07.615Z,101088.94
2018-10-05T23:18:36.580Z,101095.48
2018-10-05T23:21:05.574Z,101095.13
2018-10-05T23:23:34.531Z,101095.64
2018-10-05T23:26:03.542Z,101092.94
2018-10-05T23:28:32.529Z,101091.94
2018-10-05T23:31:01.574Z,101094.55
2018-10-05T23:33:30.561Z,101093.39
2018-10-05T23:35:59.515Z,101088.30
2018-10-05T23:38:28.487Z,101094.48
2018-10-05T23:40:57.497Z,101092.73
2018-10-05T23:43:26.486Z,101090.34
2018-10-05T23:45:55.486Z,101088.60
2018-10-05T23:48:24.562Z,101079.37
2018-10-05T23:50:53.560Z,101081.58
2018-10-05T23:53:22.548Z,101079.81
2018-10-05T23:55:51.546Z,101072.31
2018-10-05T23:58:20.550Z,101079.66
